Time;durP1;ratioP1;P1;durP2;ratioP2;P2;SDS_P1;SDS_P2;PMS_P1;PMS_P2;Temp;Humidity;BMP_temperature;BMP_pressure;BME280_temperature;BME280_humidity;BME280_pressure;Samples;Min_cycle;Max_cycle;Signal;HPM_P1;HPM_P2
2021/08/30 00:04:33;;;;;;;1999.90;999.90;;;;;;;17.96;82.78;100951.56;15779408;28;20075;-62
2021/08/30 00:12:28;;;;;;;1999.90;999.90;;;;;;;18.13;81.68;100958.66;15768251;28;20119;-61
2021/08/30 00:20:04;;;;;;;1999.90;999.90;;;;;;;18.08;81.46;100953.34;15778795;28;20040;-61
2021/08/30 00:28:04;;;;;;;1999.90;999.90;;;;;;;17.95;81.46;100951.94;15805826;28;20036;-56
2021/08/30 00:36:00;;;;;;;1999.90;999.90;;;;;;;17.77;81.50;100955.25;15735438;28;20094;-58
2021/08/30 00:44:06;;;;;;;1999.90;999.90;;;;;;;17.57;83.11;100956.47;15767623;28;20053;-58
2021/08/30 00:51:41;;;;;;;1999.90;999.90;;;;;;;17.38;85.26;100968.59;15760302;28;20049;-57
2021/08/30 00:59:42;;;;;;;1999.90;999.90;;;;;;;17.82;83.36;100959.75;15784284;28;20481;-57
2021/08/30 01:07:36;;;;;;;1999.90;999.90;;;;;;;17.66;84.03;100967.50;15778841;28;20052;-61
2021/08/30 01:15:40;;;;;;;;;;;;;;;;;;;;;
2021/08/30 01:23:29;;;;;;;1999.90;999.90;;;;;;;17.38;85.67;100977.06;15758337;28;20063;-61
2021/08/30 01:31:12;;;;;;;1999.90;999.90;;;;;;;17.79;83.61;100983.91;15746062;28;20082;-56
2021/08/30 01:38:51;;;;;;;1999.90;999.90;;;;;;;17.75;84.16;100971.75;15781855;28;20048;-64
2021/08/30 01:46:29;;;;;;;1999.90;999.90;;;;;;;17.57;84.01;100971.38;15768022;28;20049;-60
2021/08/30 01:54:10;;;;;;;1999.90;999.90;;;;;;;17.77;83.23;100979.84;15771293;28;20048;-57
2021/08/30 02:02:02;;;;;;;1999.90;999.90;;;;;;;17.21;84.15;100977.53;15782333;28;20105;-58
2021/08/30 02:09:43;;;;;;;1999.90;999.90;;;;;;;17.26;83.87;100971.59;15765085;28;20082;-62
2021/08/30 02:17:37;;;;;;;1999.90;999.90;;;;;;;17.85;81.97;100981.59;15774272;28;20098;-61
2021/08/30 02:25:26;;;;;;;1999.90;999.90;;;;;;;17.78;82.41;100976.63;15777982;28;20101;-60
2021/08/30 02:33:11;;;;;;;1999.90;999.90;;;;;;;17.84;82.72;100992.09;15761492;28;20055;-61
2021/08/30 02:40:51;;;;;;;1999.90;999.90;;;;;;;17.85;82.63;100993.72;15769857;28;20047;-62
2021/08/30 02:48:30;;;;;;;1999.90;999.90;;;;;;;17.81;82.90;100994.81;15780731;28;20105;-62
2021/08/30 02:56:25;;;;;;;1999.90;999.90;;;;;;;17.77;83.58;100988.31;15778592;28;20048;-60
2021/08/30 03:13:10;;;;;;;1999.90;999.90;;;;;;;17.25;84.77;100998.97;15716766;28;20071;-59
2021/08/30 03:21:11;;;;;;;1999.90;999.90;;;;;;;17.37;84.72;101000.00;15751160;28;20044;-59
2021/08/30 03:37:20;;;;;;;1999.90;999.90;;;;;;;17.66;82.38;101007.84;15744249;28;20052;-60
2021/08/30 03:44:58;;;;;;;1999.90;999.90;;;;;;;17.71;82.43;101003.91;15748625;28;20044;-58
2021/08/30 03:52:43;;;;;;;1999.90;999.90;;;;;;;17.86;82.09;101009.47;15747912;28;20064;-61
2021/08/30 04:00:33;;;;;;;1999.90;999.90;;;;;;;17.78;82.15;101010.50;15747074;28;20124;-58
2021/08/30 04:08:16;;;;;;;1999.90;999.90;;;;;;;17.69;82.42;101004.28;15772771;28;20043;-64
2021/08/30 04:16:05;;;;;;;1999.90;999.90;;;;;;;17.58;82.24;101015.34;15780873;28;20101;-63
2021/08/30 04:24:21;;;;;;;;;;;;;;;;;;;;;
2021/08/30 04:32:12;;;;;;;1999.90;999.90;;;;;;;17.64;81.89;101013.03;15765272;28;20151;-62
2021/08/30 04:39:47;;;;;;;1999.90;999.90;;;;;;;17.64;81.95;101013.03;15784136;28;20041;-62
2021/08/30 04:47:38;;;;;;;1999.90;999.90;;;;;;;17.68;82.02;101004.63;15767184;28;20089;-57
2021/08/30 04:55:21;;;;;;;1999.90;999.90;;;;;;;17.66;82.01;101009.84;15774456;28;20040;-62
2021/08/30 05:02:54;;;;;;;1999.90;999.90;;;;;;;17.68;81.62;101007.47;15793951;28;20107;-61
2021/08/30 05:10:28;;;;;;;1999.90;999.90;;;;;;;17.70;81.75;101016.38;15765514;28;20493;-61
2021/08/30 05:18:00;;;;;;;1999.90;999.90;;;;;;;17.82;81.16;101031.16;15777071;28;20083;-58
2021/08/30 05:25:35;;;;;;;1999.90;999.90;;;;;;;17.87;81.56;101038.50;15781715;28;20044;-63
2021/08/30 05:33:08;;;;;;;1999.90;999.90;;;;;;;17.92;81.57;101026.88;15763991;28;20059;-60
2021/08/30 05:40:45;;;;;;;1999.90;999.90;;;;;;;18.08;80.86;101038.06;15775203;28;20675;-59
2021/08/30 05:48:23;;;;;;;1999.90;999.90;;;;;;;17.89;81.43;101039.75;15774172;28;20423;-63
2021/08/30 05:55:59;;;;;;;1999.90;999.90;;;;;;;17.92;81.54;101054.28;15763992;28;20086;-61
2021/08/30 06:03:34;;;;;;;1999.90;999.90;;;;;;;18.00;81.60;101047.59;15783913;28;20094;-60
2021/08/30 06:11:08;;;;;;;1999.90;999.90;;;;;;;18.18;80.82;101051.56;15777732;28;20040;-63
2021/08/30 06:18:41;;;;;;;1999.90;999.90;;;;;;;18.22;81.18;101052.44;15739980;28;20480;-59
2021/08/30 06:26:14;;;;;;;1999.90;999.90;;;;;;;18.27;81.69;101048.50;15789302;28;20130;-59
2021/08/30 06:33:46;;;;;;;1999.90;999.90;;;;;;;18.37;80.87;101042.19;15775733;28;20047;-58
2021/08/30 06:41:29;;;;;;;1999.90;999.90;;;;;;;18.40;81.58;101045.06;15779690;28;20059;-59
2021/08/30 06:49:01;;;;;;;1999.90;999.90;;;;;;;18.33;82.55;101052.59;15791033;28;20110;-60
2021/08/30 06:56:39;;;;;;;1999.90;999.90;;;;;;;18.62;81.74;101048.25;15777571;28;20096;-61
2021/08/30 07:04:13;;;;;;;1999.90;999.90;;;;;;;18.51;82.74;101052.91;15771375;28;20050;-62
2021/08/30 07:11:50;;;;;;;1999.90;999.90;;;;;;;18.50;82.66;101054.94;15769936;28;20045;-59
2021/08/30 07:19:22;;;;;;;1999.90;999.90;;;;;;;18.47;83.05;101047.22;15790533;28;20048;-62
2021/08/30 07:27:07;;;;;;;1999.90;999.90;;;;;;;18.61;83.09;101050.25;15752918;28;20075;-59
2021/08/30 07:34:39;;;;;;;1999.90;999.90;;;;;;;18.86;82.66;101056.34;15804273;28;20042;-58
2021/08/30 07:42:13;;;;;;;1999.90;999.90;;;;;;;18.85;82.33;101065.19;15757973;28;20044;-59
2021/08/30 07:49:46;;;;;;;1999.90;999.90;;;;;;;19.01;80.47;101065.84;15761390;28;20055;-62
2021/08/30 07:57:24;;;;;;;1999.90;999.90;;;;;;;19.21;81.39;101075.81;15772519;28;20063;-59
2021/08/30 08:04:56;;;;;;;1999.90;999.90;;;;;;;19.53;80.92;101087.56;15809170;28;20406;-61
2021/08/30 08:12:30;;;;;;;1999.90;999.90;;;;;;;19.74;79.96;101095.53;15809551;28;20044;-60
2021/08/30 08:20:02;;;;;;;1999.90;999.90;;;;;;;19.71;79.84;101096.31;15809248;28;20040;-63
2021/08/30 08:27:36;;;;;;;1999.90;999.90;;;;;;;19.81;79.01;101112.59;15807192;28;20485;-62
2021/08/30 08:35:09;;;;;;;1999.90;999.90;;;;;;;19.51;78.86;101109.78;15746578;28;20056;-63
2021/08/30 08:42:44;;;;;;;1999.90;999.90;;;;;;;19.47;79.92;101120.22;15747793;28;20036;-62
2021/08/30 08:50:20;;;;;;;1999.90;999.90;;;;;;;19.31;78.55;101123.25;15804690;28;20122;-59
2021/08/30 08:57:55;;;;;;;1999.90;999.90;;;;;;;19.64;78.61;101115.22;15764053;28;20048;-60
2021/08/30 09:05:29;;;;;;;1999.90;999.90;;;;;;;19.48;79.14;101119.00;15775165;28;20139;-60
2021/08/30 09:13:11;;;;;;;1999.90;999.90;;;;;;;19.65;79.15;101122.50;15772593;28;20043;-62
2021/08/30 09:20:49;;;;;;;1999.90;999.90;;;;;;;19.16;78.96;101124.22;15785453;28;20189;-60
2021/08/30 09:28:39;;;;;;;1999.90;999.90;;;;;;;19.59;79.28;101113.50;15782314;28;20578;-61
2021/08/30 09:36:12;;;;;;;1999.90;999.90;;;;;;;19.56;79.42;101125.63;15798127;28;20123;-59
2021/08/30 09:43:47;;;;;;;1999.90;999.90;;;;;;;19.71;78.21;101109.66;15764855;28;20127;-64
2021/08/30 09:51:25;;;;;;;1999.90;999.90;;;;;;;19.69;79.82;101110.00;15759947;28;20046;-60
2021/08/30 09:58:58;;;;;;;1999.90;999.90;;;;;;;20.03;77.53;101110.00;15777321;28;20116;-60
2021/08/30 10:06:33;;;;;;;1999.90;999.90;;;;;;;20.07;77.27;101110.84;15761304;28;20440;-62
2021/08/30 10:14:08;;;;;;;1999.90;999.90;;;;;;;20.00;77.25;101114.41;15743793;28;20569;-61
2021/08/30 10:21:44;;;;;;;1999.90;999.90;;;;;;;19.92;77.74;101115.56;15775207;28;20040;-58
2021/08/30 10:29:19;;;;;;;1999.90;999.90;;;;;;;20.15;76.43;101121.06;15757124;28;20090;-63
2021/08/30 10:36:55;;;;;;;1999.90;999.90;;;;;;;20.17;77.37;101113.78;15785799;28;20049;-60
2021/08/30 10:44:30;;;;;;;1999.90;999.90;;;;;;;20.51;76.68;101110.91;15758266;28;20057;-60
2021/08/30 10:52:10;;;;;;;1999.90;999.90;;;;;;;20.36;77.05;101115.59;15778546;28;20044;-59
2021/08/30 10:59:58;;;;;;;1999.90;999.90;;;;;;;20.35;78.80;101113.16;15768534;28;20041;-57
2021/08/30 11:07:36;;;;;;;1999.90;999.90;;;;;;;20.54;77.83;101112.97;15736841;28;20064;-59
2021/08/30 11:15:20;;;;;;;1999.90;999.90;;;;;;;20.96;76.85;101115.34;15748345;28;20053;-63
2021/08/30 11:22:55;;;;;;;1999.90;999.90;;;;;;;20.37;79.24;101114.41;15749743;28;20048;-57
2021/08/30 11:30:33;;;;;;;1999.90;999.90;;;;;;;20.77;78.81;101109.91;15769305;28;20032;-62
2021/08/30 11:38:39;;;;;;;1999.90;999.90;;;;;;;21.44;77.44;101115.22;15811297;28;20074;-59
2021/08/30 11:46:47;;;;;;;1999.90;999.90;;;;;;;21.86;75.72;101113.78;15811579;28;20047;-60
2021/08/30 11:54:29;;;;;;;1999.90;999.90;;;;;;;21.51;76.78;101105.94;15806553;28;20298;-60
2021/08/30 12:02:24;;;;;;;1999.90;999.90;;;;;;;22.86;72.18;101108.28;15811351;28;20102;-57
2021/08/30 12:10:10;;;;;;;1999.90;999.90;;;;;;;22.45;72.87;101105.81;15807692;28;20044;-58
2021/08/30 12:18:12;;;;;;;1999.90;999.90;;;;;;;22.34;71.45;101105.81;15809604;28;20448;-60
2021/08/30 12:25:56;;;;;;;1999.90;999.90;;;;;;;22.73;71.61;101094.44;15807416;28;20505;-59
2021/08/30 12:33:41;;;;;;;1999.90;999.90;;;;;;;22.36;71.36;101102.56;15762440;28;20045;-59
2021/08/30 12:41:26;;;;;;;1999.90;999.90;;;;;;;21.68;73.43;101093.84;15744331;28;20135;-60
2021/08/30 12:49:08;;;;;;;1999.90;999.90;;;;;;;21.04;77.82;101084.97;15744492;28;20033;-59
2021/08/30 12:56:42;;;;;;;1999.90;999.90;;;;;;;21.18;76.49;101087.09;15745540;28;20044;-60
2021/08/30 13:04:33;;;;;;;1999.90;999.90;;;;;;;21.42;76.34;101088.47;15744428;28;20117;-59
2021/08/30 13:12:08;;;;;;;1999.90;999.90;;;;;;;21.37;77.37;101081.16;15742075;28;20060;-62
2021/08/30 13:19:42;;;;;;;1999.90;999.90;;;;;;;21.53;75.95;101069.44;15743203;28;20051;-58
2021/08/30 13:27:15;;;;;;;1999.90;999.90;;;;;;;21.53;74.89;101084.44;15740740;28;20118;-61
2021/08/30 13:34:48;;;;;;;1999.90;999.90;;;;;;;21.50;75.99;101078.78;15800085;28;20043;-61
2021/08/30 13:42:24;;;;;;;1999.90;999.90;;;;;;;21.96;74.31;101089.47;15806687;28;20070;-62
2021/08/30 13:49:56;;;;;;;1999.90;999.90;;;;;;;21.83;76.13;101077.66;15809461;28;20478;-59
2021/08/30 13:57:29;;;;;;;1999.90;999.90;;;;;;;21.74;74.52;101089.41;15804260;28;20036;-61
2021/08/30 14:05:02;;;;;;;1999.90;999.90;;;;;;;20.99;77.32;101082.53;15804139;28;20490;-61
2021/08/30 14:12:35;;;;;;;1999.90;999.90;;;;;;;20.82;78.35;101083.19;15802837;28;20048;-63
2021/08/30 14:20:09;;;;;;;1999.90;999.90;;;;;;;20.65;78.66;101077.03;15802131;28;20047;-59
2021/08/30 14:27:44;;;;;;;1999.90;999.90;;;;;;;20.52;79.68;101089.03;15801890;28;20040;-61
2021/08/30 14:35:17;;;;;;;1999.90;999.90;;;;;;;20.85;80.22;101085.25;15741516;28;20044;-59
2021/08/30 14:42:50;;;;;;;1999.90;999.90;;;;;;;20.78;79.12;101088.03;15740252;28;20047;-58
2021/08/30 14:50:22;;;;;;;1999.90;999.90;;;;;;;20.80;79.46;101089.28;15752169;28;20053;-58
2021/08/30 14:57:56;;;;;;;1999.90;999.90;;;;;;;20.48;78.86;101093.88;15750793;28;20055;-61
2021/08/30 15:05:28;;;;;;;1999.90;999.90;;;;;;;20.94;78.35;101099.91;15749846;28;20055;-58
2021/08/30 15:13:01;;;;;;;1999.90;999.90;;;;;;;21.10;77.75;101099.59;15749809;28;20037;-57
2021/08/30 15:20:36;;;;;;;1999.90;999.90;;;;;;;20.62;78.41;101105.31;15750660;28;20049;-59
2021/08/30 15:28:17;;;;;;;1999.90;999.90;;;;;;;20.49;78.90;101106.84;15752531;28;20464;-59
2021/08/30 15:35:51;;;;;;;1999.90;999.90;;;;;;;20.11;79.98;101112.53;15813351;28;20051;-60
2021/08/30 15:43:26;;;;;;;1999.90;999.90;;;;;;;20.20;79.64;101103.69;15812367;28;20072;-59
2021/08/30 15:50:58;;;;;;;1999.90;999.90;;;;;;;19.92;81.55;101112.72;15812843;28;20063;-59
2021/08/30 15:58:45;;;;;;;1999.90;999.90;;;;;;;20.21;80.90;101105.31;15793362;28;20130;-58
2021/08/30 16:06:17;;;;;;;1999.90;999.90;;;;;;;20.18;80.83;101104.09;15808608;28;20040;-59
2021/08/30 16:13:56;;;;;;;1999.90;999.90;;;;;;;20.45;79.97;101106.81;15809846;28;20058;-60
2021/08/30 16:21:29;;;;;;;1999.90;999.90;;;;;;;20.23;80.61;101110.63;15808327;28;20059;-59
2021/08/30 16:29:06;;;;;;;1999.90;999.90;;;;;;;19.97;81.44;101105.88;15795770;28;20053;-59
2021/08/30 16:36:38;;;;;;;1999.90;999.90;;;;;;;19.59;82.49;101114.38;15744342;28;20056;-62
2021/08/30 16:44:12;;;;;;;1999.90;999.90;;;;;;;19.32;83.64;101113.56;15745278;28;20033;-61
2021/08/30 16:51:48;;;;;;;1999.90;999.90;;;;;;;19.44;82.55;101112.50;15743794;28;20048;-59
2021/08/30 16:59:21;;;;;;;1999.90;999.90;;;;;;;19.34;83.49;101118.81;15742408;28;20052;-57
2021/08/30 17:06:55;;;;;;;1999.90;999.90;;;;;;;19.06;84.35;101119.22;15742244;28;20053;-59
2021/08/30 17:14:32;;;;;;;1999.90;999.90;;;;;;;19.16;84.05;101131.91;15724669;28;20044;-60
2021/08/30 17:22:04;;;;;;;1999.90;999.90;;;;;;;19.09;83.52;101140.28;15741507;28;20132;-60
2021/08/30 17:29:39;;;;;;;1999.90;999.90;;;;;;;19.00;85.09;101140.56;15754745;28;20067;-60
2021/08/30 17:37:12;;;;;;;1999.90;999.90;;;;;;;18.93;84.49;101134.78;15804887;28;20052;-61
2021/08/30 17:44:45;;;;;;;1999.90;999.90;;;;;;;19.12;83.07;101146.00;15804622;28;20051;-60
2021/08/30 17:52:18;;;;;;;1999.90;999.90;;;;;;;18.94;84.20;101142.06;15804024;28;20304;-61
2021/08/30 17:59:54;;;;;;;1999.90;999.90;;;;;;;18.68;84.66;101157.00;15804312;28;20072;-58
2021/08/30 18:07:31;;;;;;;1999.90;999.90;;;;;;;18.65;84.87;101163.38;15802425;28;20036;-62
2021/08/30 18:15:09;;;;;;;1999.90;999.90;;;;;;;18.62;84.60;101166.94;15803057;28;20048;-62
2021/08/30 18:22:44;;;;;;;1999.90;999.90;;;;;;;18.65;84.03;101181.19;15802277;28;20127;-59
2021/08/30 18:30:18;;;;;;;1999.90;999.90;;;;;;;18.77;83.71;101191.50;15781718;28;20045;-59
2021/08/30 18:37:52;;;;;;;1999.90;999.90;;;;;;;18.87;82.44;101196.50;15740346;28;20116;-61
2021/08/30 18:45:26;;;;;;;1999.90;999.90;;;;;;;18.61;83.57;101199.22;15741179;28;20106;-58
2021/08/30 18:52:58;;;;;;;1999.90;999.90;;;;;;;18.70;82.90;101202.66;15738559;28;20375;-59
2021/08/30 19:00:32;;;;;;;1999.90;999.90;;;;;;;18.70;82.62;101209.13;15739090;28;20048;-56
2021/08/30 19:08:04;;;;;;;1999.90;999.90;;;;;;;18.43;84.51;101213.84;15736801;28;20063;-61
2021/08/30 19:15:39;;;;;;;1999.90;999.90;;;;;;;18.59;83.41;101212.94;15738701;28;20123;-61
2021/08/30 19:23:13;;;;;;;1999.90;999.90;;;;;;;18.50;82.90;101207.50;15741109;28;20052;-61
2021/08/30 19:30:49;;;;;;;1999.90;999.90;;;;;;;18.39;82.44;101198.03;15766346;28;20044;-56
2021/08/30 19:38:21;;;;;;;1999.90;999.90;;;;;;;18.39;82.50;101200.84;15811563;28;20128;-61
2021/08/30 19:45:55;;;;;;;1999.90;999.90;;;;;;;18.29;83.61;101207.09;15811362;28;20467;-60
2021/08/30 19:53:27;;;;;;;1999.90;999.90;;;;;;;18.15;83.87;101204.84;15811122;28;20119;-59
2021/08/30 20:01:03;;;;;;;1999.90;999.90;;;;;;;18.23;82.73;101211.41;15810984;28;20500;-61
2021/08/30 20:08:36;;;;;;;1999.90;999.90;;;;;;;18.19;82.69;101219.81;15810375;28;20044;-61
2021/08/30 20:16:14;;;;;;;1999.90;999.90;;;;;;;18.29;81.91;101226.88;15811573;28;20113;-63
2021/08/30 20:23:48;;;;;;;1999.90;999.90;;;;;;;17.98;83.23;101225.03;15809522;28;20048;-60
2021/08/30 20:31:25;;;;;;;1999.90;999.90;;;;;;;18.23;82.16;101231.19;15778796;28;20052;-61
2021/08/30 20:38:57;;;;;;;1999.90;999.90;;;;;;;18.26;81.96;101233.28;15745499;28;20076;-59
2021/08/30 20:46:31;;;;;;;1999.90;999.90;;;;;;;18.17;81.53;101245.63;15744090;28;20048;-55
2021/08/30 20:54:04;;;;;;;1999.90;999.90;;;;;;;18.04;82.59;101238.50;15744554;28;20047;-58
2021/08/30 21:01:41;;;;;;;1999.90;999.90;;;;;;;17.98;82.35;101247.63;15726029;28;20043;-59
2021/08/30 21:09:16;;;;;;;1999.90;999.90;;;;;;;18.03;82.58;101233.19;15742295;28;20056;-56
2021/08/30 21:16:53;;;;;;;1999.90;999.90;;;;;;;17.87;82.22;101239.75;15741465;28;20045;-61
2021/08/30 21:24:25;;;;;;;1999.90;999.90;;;;;;;17.83;82.02;101240.88;15743321;28;20044;-59
2021/08/30 21:31:59;;;;;;;1999.90;999.90;;;;;;;17.74;82.36;101246.72;15775356;28;20127;-61
2021/08/30 21:39:38;;;;;;;1999.90;999.90;;;;;;;17.71;82.68;101247.44;15805205;28;20063;-58
2021/08/30 21:47:32;;;;;;;1999.90;999.90;;;;;;;17.73;82.63;101252.72;15803525;28;20047;-61
2021/08/30 21:55:08;;;;;;;1999.90;999.90;;;;;;;17.60;82.75;101257.63;15804019;28;20054;-61
2021/08/30 22:02:41;;;;;;;1999.90;999.90;;;;;;;17.85;82.17;101266.72;15803818;28;20085;-60
2021/08/30 22:10:14;;;;;;;1999.90;999.90;;;;;;;17.82;81.91;101268.28;15801561;28;20415;-60
2021/08/30 22:17:55;;;;;;;1999.90;999.90;;;;;;;17.91;81.67;101270.03;15804668;28;20059;-59
2021/08/30 22:25:27;;;;;;;1999.90;999.90;;;;;;;17.74;81.43;101271.31;15803357;28;20051;-57
2021/08/30 22:33:12;;;;;;;1999.90;999.90;;;;;;;17.60;81.85;101269.75;15760078;28;20429;-58
2021/08/30 22:40:48;;;;;;;1999.90;999.90;;;;;;;17.41;83.83;101278.16;15738502;28;20148;-58
2021/08/30 22:48:21;;;;;;;1999.90;999.90;;;;;;;17.54;83.27;101273.22;15737440;28;20048;-59
2021/08/30 22:55:54;;;;;;;1999.90;999.90;;;;;;;17.76;82.09;101288.69;15739328;28;20052;-58
2021/08/30 23:03:30;;;;;;;1999.90;999.90;;;;;;;17.76;82.01;101294.31;15758414;28;20071;-60
2021/08/30 23:11:05;;;;;;;1999.90;999.90;;;;;;;17.53;84.06;101300.63;15794505;28;20401;-60
2021/08/30 23:18:38;;;;;;;1999.90;999.90;;;;;;;17.68;82.82;101296.13;15773606;28;20123;-61
2021/08/30 23:26:13;;;;;;;1999.90;999.90;;;;;;;17.86;81.90;101293.75;15797231;28;20056;-57
2021/08/30 23:33:47;;;;;;;1999.90;999.90;;;;;;;17.95;81.01;101294.38;15771173;28;20131;-60
2021/08/30 23:41:19;;;;;;;1999.90;999.90;;;;;;;18.01;80.60;101307.00;15748830;28;20091;-60
2021/08/30 23:48:52;;;;;;;1999.90;999.90;;;;;;;17.99;79.87;101308.56;15772431;28;20505;-62
2021/08/30 23:56:25;;;;;;;1999.90;999.90;;;;;;;17.75;81.03;101298.34;15809434;28;20043;-60
